createdAt,value
2019-02-18T00:00:08.152Z,3.86
2019-02-18T00:01:08.036Z,3.88
2019-02-18T00:02:10.463Z,3.88
2019-02-18T00:03:08.019Z,3.86
2019-02-18T00:04:08.079Z,3.88
2019-02-18T00:05:08.010Z,3.95
2019-02-18T00:07:14.467Z,3.90
2019-02-18T00:08:09.028Z,3.90
2019-02-18T00:09:07.943Z,3.90
2019-02-18T00:10:08.041Z,3.99
2019-02-18T00:11:07.919Z,4.00
2019-02-18T00:12:08.030Z,4.00
2019-02-18T00:13:07.897Z,4.11
2019-02-18T00:14:07.938Z,4.17
2019-02-18T00:15:07.903Z,4.20
2019-02-18T00:17:08.983Z,4.20
2019-02-18T00:18:07.971Z,4.14
2019-02-18T00:19:07.834Z,4.13
2019-02-18T00:20:07.905Z,4.06
2019-02-18T00:21:07.813Z,4.13
2019-02-18T00:23:08.918Z,3.99
2019-02-18T00:24:07.806Z,3.98
2019-02-18T00:25:07.804Z,4.08
2019-02-18T00:26:07.850Z,4.10
2019-02-18T00:27:07.755Z,4.04
2019-02-18T00:28:07.838Z,4.10
2019-02-18T00:29:07.796Z,4.07
2019-02-18T00:30:07.750Z,4.04
2019-02-18T00:31:07.734Z,4.11
2019-02-18T00:32:07.758Z,4.08
2019-02-18T00:33:07.685Z,4.07
2019-02-18T00:34:07.772Z,4.07
2019-02-18T00:35:07.689Z,4.11
2019-02-18T00:36:08.231Z,4.11
2019-02-18T00:37:07.638Z,3.96
2019-02-18T00:38:07.801Z,4.00
2019-02-18T00:39:07.630Z,3.98
2019-02-18T00:41:08.753Z,3.99
2019-02-18T00:42:08.062Z,3.90
2019-02-18T00:43:07.573Z,3.89
2019-02-18T00:45:08.684Z,3.80
2019-02-18T00:46:08.607Z,3.78
2019-02-18T00:47:07.558Z,3.71
2019-02-18T00:49:08.673Z,3.67
2019-02-18T00:51:08.659Z,3.68
2019-02-18T00:53:08.601Z,3.60
2019-02-18T00:55:08.585Z,3.50
2019-02-18T00:56:08.878Z,3.52
2019-02-18T00:57:07.439Z,3.42
2019-02-18T00:59:08.553Z,3.37
2019-02-18T01:00:09.488Z,3.31
2019-02-18T01:01:07.410Z,3.31
2019-02-18T01:02:08.939Z,3.19
2019-02-18T01:03:07.371Z,3.33
2019-02-18T01:05:08.504Z,3.28
2019-02-18T01:07:08.494Z,3.12
2019-02-18T01:08:09.360Z,3.04
2019-02-18T01:09:07.450Z,3.13
2019-02-18T01:11:54.597Z,3.08
2019-02-18T01:12:54.565Z,3.10
2019-02-18T01:13:54.554Z,3.02
2019-02-18T01:14:54.416Z,3.07
2019-02-18T01:15:54.459Z,3.01
2019-02-18T01:16:54.450Z,2.92
2019-02-18T01:17:54.471Z,2.99
2019-02-18T01:18:54.367Z,2.94
2019-02-18T01:19:54.471Z,2.95
2019-02-18T01:20:54.346Z,3.02
2019-02-18T01:21:54.391Z,2.98
2019-02-18T01:22:54.361Z,2.95
2019-02-18T01:24:55.458Z,2.95
2019-02-18T01:26:55.422Z,2.89
2019-02-18T01:27:54.362Z,3.02
2019-02-18T01:28:54.260Z,2.99
2019-02-18T01:29:54.342Z,2.97
2019-02-18T01:30:54.244Z,2.98
2019-02-18T01:31:54.362Z,2.94
2019-02-18T01:32:54.261Z,2.90
2019-02-18T01:33:54.266Z,2.86
2019-02-18T01:34:54.200Z,2.84
2019-02-18T01:35:54.305Z,2.87
2019-02-18T01:36:54.194Z,2.87
2019-02-18T01:37:54.229Z,2.83
2019-02-18T01:38:54.153Z,2.76
2019-02-18T01:40:55.261Z,2.73
2019-02-18T01:42:55.339Z,2.76
2019-02-18T01:43:54.311Z,2.66
2019-02-18T01:44:54.264Z,2.83
2019-02-18T01:47:41.082Z,2.76
2019-02-18T01:48:41.120Z,2.69
2019-02-18T01:49:40.926Z,2.73
2019-02-18T01:50:40.914Z,2.69
2019-02-18T01:51:40.910Z,2.66
2019-02-18T01:52:40.991Z,2.56
2019-02-18T01:53:40.913Z,2.69
2019-02-18T01:54:40.888Z,2.66
2019-02-18T01:55:40.866Z,2.69
2019-02-18T01:56:40.903Z,2.73
2019-02-18T01:57:40.841Z,2.61
2019-02-18T01:58:40.950Z,2.62
2019-02-18T01:59:40.819Z,2.59
2019-02-18T02:00:40.836Z,2.56
2019-02-18T02:01:40.788Z,2.59
2019-02-18T02:02:40.847Z,2.59
2019-02-18T02:03:40.802Z,2.48
2019-02-18T02:04:40.895Z,2.53
2019-02-18T02:05:40.745Z,2.59
2019-02-18T02:06:40.773Z,2.56
2019-02-18T02:07:40.727Z,2.51
2019-02-18T02:08:40.813Z,2.51
2019-02-18T02:09:40.726Z,2.48
2019-02-18T02:10:40.795Z,2.51
2019-02-18T02:11:40.682Z,2.56
2019-02-18T02:12:40.718Z,2.51
2019-02-18T02:13:40.663Z,2.53
2019-02-18T02:14:42.700Z,2.53
2019-02-18T02:15:40.640Z,2.50
2019-02-18T02:17:41.745Z,2.48
2019-02-18T02:18:40.667Z,2.45
2019-02-18T02:19:40.628Z,2.38
2019-02-18T02:20:40.668Z,2.48
2019-02-18T02:21:40.601Z,2.48
2019-02-18T02:22:42.633Z,2.47
2019-02-18T02:23:40.584Z,2.55
2019-02-18T02:24:40.619Z,2.56
2019-02-18T02:25:40.532Z,2.63
2019-02-18T02:26:40.621Z,2.63
2019-02-18T02:27:40.516Z,2.61
2019-02-18T02:28:40.628Z,2.63
2019-02-18T02:29:40.516Z,2.66
2019-02-18T02:30:40.554Z,2.65
2019-02-18T02:31:40.469Z,2.63
2019-02-18T02:33:41.577Z,2.59
2019-02-18T02:34:40.610Z,2.61
2019-02-18T02:35:40.452Z,2.59
2019-02-18T02:36:40.470Z,2.59
2019-02-18T02:37:40.410Z,2.63
2019-02-18T02:38:40.484Z,2.55
2019-02-18T02:39:40.414Z,2.61
2019-02-18T02:40:40.501Z,2.51
2019-02-18T02:41:40.367Z,2.43
2019-02-18T02:43:41.499Z,2.40
2019-02-18T02:44:40.453Z,2.40
2019-02-18T02:45:40.353Z,2.43
2019-02-18T02:46:40.327Z,2.30
2019-02-18T02:47:40.291Z,2.33
2019-02-18T02:48:40.351Z,2.27
2019-02-18T02:49:40.274Z,2.25
2019-02-18T02:50:40.390Z,2.15
2019-02-18T02:51:40.256Z,2.19
2019-02-18T02:52:40.277Z,2.09
2019-02-18T02:53:40.235Z,2.11
2019-02-18T02:54:40.295Z,2.15
2019-02-18T02:55:40.234Z,2.12
2019-02-18T02:56:40.328Z,2.19
2019-02-18T02:57:40.190Z,2.07
2019-02-18T02:58:40.208Z,2.09
2019-02-18T02:59:40.162Z,2.07
2019-02-18T03:00:40.220Z,2.02
2019-02-18T03:01:40.168Z,1.95
2019-02-18T03:02:40.243Z,2.02
2019-02-18T03:03:40.123Z,2.11
2019-02-18T03:04:40.153Z,2.05
2019-02-18T03:05:40.109Z,2.02
2019-02-18T03:06:40.194Z,2.04
2019-02-18T03:07:40.080Z,1.95
2019-02-18T03:08:40.172Z,1.93
2019-02-18T03:09:40.059Z,2.02
2019-02-18T03:10:40.083Z,2.01
2019-02-18T03:11:40.061Z,2.05
2019-02-18T03:12:40.113Z,2.00
2019-02-18T03:13:40.033Z,2.01
2019-02-18T03:14:40.111Z,2.00
2019-02-18T03:15:39.989Z,1.95
2019-02-18T03:16:40.058Z,1.95
2019-02-18T03:17:39.982Z,1.92
2019-02-18T03:18:40.039Z,1.90
2019-02-18T03:19:39.960Z,1.93
2019-02-18T03:20:40.070Z,1.90
2019-02-18T03:21:39.952Z,1.89
2019-02-18T03:22:39.966Z,1.92
2019-02-18T03:23:39.913Z,1.75
2019-02-18T03:24:39.981Z,1.92
2019-02-18T03:25:39.994Z,1.82
2019-02-18T03:26:40.028Z,1.79
2019-02-18T03:27:39.863Z,1.83
2019-02-18T03:28:39.903Z,1.72
2019-02-18T03:29:39.838Z,1.68
2019-02-18T03:30:39.923Z,1.65
2019-02-18T03:31:39.818Z,1.63
2019-02-18T03:32:39.862Z,1.61
2019-02-18T03:33:39.795Z,1.53
2019-02-18T03:34:39.847Z,1.52
2019-02-18T03:35:39.780Z,1.49
2019-02-18T03:36:39.856Z,1.46
2019-02-18T03:37:39.787Z,1.50
2019-02-18T03:38:39.794Z,1.39
2019-02-18T03:39:39.768Z,1.42
2019-02-18T03:40:39.780Z,1.43
2019-02-18T03:41:41.008Z,1.36
2019-02-18T03:42:39.799Z,1.38
2019-02-18T03:43:39.696Z,1.34
2019-02-18T03:44:39.711Z,1.35
2019-02-18T03:45:39.673Z,1.38
2019-02-18T03:46:39.734Z,1.34
2019-02-18T03:47:39.673Z,1.32
2019-02-18T03:49:40.762Z,1.35
2019-02-18T03:50:39.652Z,1.17
2019-02-18T03:51:39.602Z,1.14
2019-02-18T03:52:39.689Z,1.21
2019-02-18T03:53:39.597Z,1.20
2019-02-18T03:55:40.686Z,1.20
2019-02-18T03:56:39.590Z,1.21
2019-02-18T03:57:39.566Z,1.20
2019-02-18T03:58:39.632Z,1.20
2019-02-18T03:59:39.515Z,1.14
2019-02-18T04:00:39.618Z,1.11
2019-02-18T04:01:39.515Z,1.16
2019-02-18T04:02:39.532Z,1.13
2019-02-18T04:03:39.508Z,1.11
2019-02-18T04:04:39.552Z,1.08
2019-02-18T04:05:39.451Z,1.07
2019-02-18T04:06:39.565Z,1.06
2019-02-18T04:07:39.461Z,1.00
2019-02-18T04:08:42.802Z,0.96
2019-02-18T04:09:39.432Z,1.00
2019-02-18T04:10:39.484Z,1.04
2019-02-18T04:11:39.381Z,1.02
2019-02-18T04:12:39.497Z,0.99
2019-02-18T04:13:39.392Z,0.96
2019-02-18T04:14:39.409Z,0.96
2019-02-18T04:15:39.335Z,1.04
2019-02-18T04:16:39.438Z,0.98
2019-02-18T04:17:39.318Z,0.96
2019-02-18T04:18:39.363Z,0.89
2019-02-18T04:19:39.290Z,0.90
2019-02-18T04:20:39.345Z,0.89
2019-02-18T04:21:39.273Z,0.96
2019-02-18T04:22:39.364Z,0.92
2019-02-18T04:23:39.293Z,0.84
2019-02-18T04:24:41.320Z,0.86
2019-02-18T04:25:39.225Z,0.80
2019-02-18T04:26:39.284Z,0.86
2019-02-18T04:27:39.206Z,0.81
2019-02-18T04:28:39.330Z,0.82
2019-02-18T04:29:39.201Z,0.78
2019-02-18T04:30:39.206Z,0.78
2019-02-18T04:31:39.159Z,0.72
2019-02-18T04:32:39.225Z,0.78
2019-02-18T04:33:39.133Z,0.71
2019-02-18T04:34:39.268Z,0.77
2019-02-18T04:35:39.108Z,0.78
2019-02-18T04:36:39.158Z,0.82
2019-02-18T04:37:39.091Z,0.77
2019-02-18T04:38:39.164Z,0.86
2019-02-18T04:39:39.097Z,0.89
2019-02-18T04:40:39.181Z,0.75
2019-02-18T04:41:39.045Z,0.84
2019-02-18T04:43:42.026Z,0.86
2019-02-18T04:44:39.141Z,0.81
2019-02-18T04:45:39.011Z,0.89
2019-02-18T04:46:39.115Z,0.81
2019-02-18T04:47:38.978Z,0.92
2019-02-18T04:48:39.027Z,0.71
2019-02-18T04:49:39.011Z,0.77
2019-02-18T04:51:40.067Z,0.71
2019-02-18T04:52:38.974Z,0.64
2019-02-18T04:53:38.918Z,0.71
2019-02-18T04:54:40.021Z,0.57
2019-02-18T04:55:38.903Z,0.71
2019-02-18T04:57:40.006Z,0.56
2019-02-18T04:59:40.022Z,0.60
2019-02-18T05:00:38.975Z,0.49
2019-02-18T05:01:39.060Z,0.49
2019-02-18T05:02:38.947Z,0.49
2019-02-18T05:03:39.061Z,0.45
2019-02-18T05:04:38.966Z,0.38
2019-02-18T05:05:38.824Z,0.38
2019-02-18T05:06:38.886Z,0.37
2019-02-18T05:07:38.768Z,0.33
2019-02-18T05:08:38.906Z,0.33
2019-02-18T05:09:39.930Z,0.37
2019-02-18T05:10:38.805Z,0.26
2019-02-18T05:11:38.730Z,0.26
2019-02-18T05:12:38.803Z,0.23
2019-02-18T05:13:38.706Z,0.19
2019-02-18T05:14:38.797Z,0.20
2019-02-18T05:15:40.367Z,0.30
2019-02-18T05:16:38.709Z,0.23
2019-02-18T05:17:38.657Z,0.23
2019-02-18T05:18:38.734Z,0.16
2019-02-18T05:19:38.641Z,0.22
2019-02-18T05:20:38.775Z,0.12
2019-02-18T05:21:38.611Z,0.13
2019-02-18T05:22:38.656Z,0.17
2019-02-18T05:23:38.593Z,0.16
2019-02-18T05:24:38.660Z,0.15
2019-02-18T05:25:38.609Z,0.12
2019-02-18T05:26:38.681Z,0.12
2019-02-18T05:27:38.552Z,0.15
2019-02-18T05:28:38.595Z,0.15
2019-02-18T05:29:38.542Z,0.12
2019-02-18T05:30:38.605Z,0.13
2019-02-18T05:31:38.550Z,0.20
2019-02-18T05:33:39.641Z,0.10
2019-02-18T05:34:38.537Z,0.16
2019-02-18T05:35:38.466Z,0.10
2019-02-18T05:36:38.576Z,0.20
2019-02-18T05:37:38.444Z,0.26
2019-02-18T05:38:38.555Z,0.23
2019-02-18T05:39:38.422Z,0.16
2019-02-18T05:40:38.473Z,0.22
2019-02-18T05:41:38.460Z,0.22
2019-02-18T05:42:38.480Z,0.12
2019-02-18T05:43:38.372Z,0.17
2019-02-18T05:44:38.399Z,0.20
2019-02-18T05:45:38.352Z,0.13
2019-02-18T05:46:38.433Z,0.08
2019-02-18T05:47:38.335Z,-0.01
2019-02-18T05:49:39.445Z,-0.02
2019-02-18T05:50:38.334Z,-0.01
2019-02-18T05:51:38.289Z,-0.01
2019-02-18T05:52:38.387Z,-0.02
2019-02-18T05:53:38.293Z,-0.06
2019-02-18T05:54:38.357Z,-0.05
2019-02-18T05:55:38.256Z,-0.12
2019-02-18T05:56:38.270Z,-0.12
2019-02-18T05:57:38.249Z,-0.12
2019-02-18T05:58:38.284Z,-0.09
2019-02-18T05:59:38.208Z,-0.17
2019-02-18T06:00:38.299Z,-0.09
2019-02-18T06:01:38.188Z,-0.19
2019-02-18T06:02:38.261Z,-0.23
2019-02-18T06:03:38.168Z,-0.16
2019-02-18T06:05:39.296Z,-0.21
2019-02-18T06:06:38.284Z,-0.21
2019-02-18T06:07:38.291Z,-0.26
2019-02-18T06:08:38.295Z,-0.27
2019-02-18T06:09:38.238Z,-0.27
2019-02-18T06:10:38.308Z,-0.27
2019-02-18T06:11:38.088Z,-0.31
2019-02-18T06:12:38.207Z,-0.23
2019-02-18T06:13:38.059Z,-0.26
2019-02-18T06:14:38.098Z,-0.34
2019-02-18T06:15:38.045Z,-0.35
2019-02-18T06:16:38.107Z,-0.35
2019-02-18T06:17:38.044Z,-0.31
2019-02-18T06:18:38.120Z,-0.34
2019-02-18T06:19:37.996Z,-0.34
2019-02-18T06:20:38.029Z,-0.35
2019-02-18T06:21:37.981Z,-0.39
2019-02-18T06:22:38.837Z,-0.37
2019-02-18T06:23:37.971Z,-0.42
2019-02-18T06:24:38.059Z,-0.37
2019-02-18T06:25:37.953Z,-0.34
2019-02-18T06:26:37.979Z,-0.34
2019-02-18T06:27:37.905Z,-0.31
2019-02-18T06:28:38.017Z,-0.41
2019-02-18T06:29:37.880Z,-0.31
2019-02-18T06:30:38.006Z,-0.41
2019-02-18T06:31:37.857Z,-0.42
2019-02-18T06:32:37.907Z,-0.31
2019-02-18T06:33:37.867Z,-0.37
2019-02-18T06:34:37.926Z,-0.47
2019-02-18T06:35:37.816Z,-0.41
2019-02-18T06:36:37.829Z,-0.37
2019-02-18T06:37:37.801Z,-0.44
2019-02-18T06:38:38.934Z,-0.39
2019-02-18T06:39:41.242Z,-0.32
2019-02-18T06:40:37.856Z,-0.35
2019-02-18T06:41:37.766Z,-0.32
2019-02-18T06:42:37.776Z,-0.35
2019-02-18T06:43:37.767Z,-0.39
2019-02-18T06:44:37.788Z,-0.35
2019-02-18T06:45:37.711Z,-0.35
2019-02-18T06:46:37.802Z,-0.39
2019-02-18T06:47:37.692Z,-0.38
2019-02-18T06:48:37.741Z,-0.44
2019-02-18T06:49:37.663Z,-0.42
2019-02-18T06:50:38.065Z,-0.37
2019-02-18T06:51:37.717Z,-0.35
2019-02-18T06:52:37.743Z,-0.31
2019-02-18T06:53:37.669Z,-0.27
2019-02-18T06:54:37.662Z,-0.32
2019-02-18T06:55:37.602Z,-0.30
2019-02-18T06:56:37.663Z,-0.27
2019-02-18T06:57:37.583Z,-0.27
2019-02-18T06:58:37.680Z,-0.21
2019-02-18T06:59:37.602Z,-0.20
2019-02-18T07:00:37.592Z,-0.17
2019-02-18T07:01:37.550Z,-0.14
2019-02-18T07:02:37.599Z,-0.23
2019-02-18T07:03:37.512Z,-0.23
2019-02-18T07:04:37.754Z,-0.20
2019-02-18T07:05:37.533Z,-0.12
2019-02-18T07:06:37.629Z,-0.17
2019-02-18T07:07:37.475Z,-0.17
2019-02-18T07:08:37.541Z,-0.23
2019-02-18T07:09:37.486Z,-0.16
2019-02-18T07:10:37.587Z,-0.08
2019-02-18T07:11:37.429Z,-0.09
2019-02-18T07:12:37.466Z,-0.09
2019-02-18T07:13:37.408Z,-0.01
2019-02-18T07:14:37.490Z,-0.02
2019-02-18T07:15:37.426Z,-0.01
2019-02-18T07:16:37.498Z,-0.05
2019-02-18T07:17:37.365Z,-0.02
2019-02-18T07:18:37.409Z,-0.01
2019-02-18T07:19:37.342Z,0.01
2019-02-18T07:20:37.475Z,0.01
2019-02-18T07:21:37.342Z,0.08
2019-02-18T07:22:37.440Z,0.07
2019-02-18T07:23:37.304Z,0.12
2019-02-18T07:24:37.345Z,0.13
2019-02-18T07:25:37.314Z,0.12
2019-02-18T07:26:37.359Z,0.30
2019-02-18T07:27:37.263Z,0.28
2019-02-18T07:28:37.406Z,0.30
2019-02-18T07:29:37.240Z,0.31
2019-02-18T07:30:37.317Z,0.31
2019-02-18T07:31:37.229Z,0.35
2019-02-18T07:32:37.336Z,0.33
2019-02-18T07:33:37.217Z,0.31
2019-02-18T07:34:37.212Z,0.35
2019-02-18T07:35:37.210Z,0.43
2019-02-18T07:36:37.167Z,0.45
2019-02-18T07:37:37.162Z,0.43
2019-02-18T07:38:37.144Z,0.51
2019-02-18T07:39:37.128Z,0.56
2019-02-18T07:40:37.149Z,0.51
2019-02-18T07:41:37.117Z,0.56
2019-02-18T07:42:37.102Z,0.53
2019-02-18T07:43:37.175Z,0.68
2019-02-18T07:44:37.181Z,0.70
2019-02-18T07:45:37.090Z,0.75
2019-02-18T07:46:37.086Z,0.72
2019-02-18T07:47:37.054Z,0.75
2019-02-18T07:49:38.170Z,0.82
2019-02-18T07:50:37.182Z,0.92
2019-02-18T07:51:37.035Z,0.92
2019-02-18T07:52:37.031Z,0.96
2019-02-18T07:53:36.991Z,0.99
2019-02-18T07:54:37.073Z,1.08
2019-02-18T07:55:36.956Z,1.11
2019-02-18T07:56:37.092Z,1.17
2019-02-18T07:57:36.946Z,1.20
2019-02-18T07:58:36.971Z,1.20
2019-02-18T07:59:36.912Z,1.13
2019-02-18T08:00:36.984Z,1.34
2019-02-18T08:01:36.922Z,1.32
2019-02-18T08:02:37.019Z,1.31
2019-02-18T08:03:36.870Z,1.36
2019-02-18T08:04:36.911Z,1.39
2019-02-18T08:05:36.850Z,1.47
2019-02-18T08:06:36.976Z,1.57
2019-02-18T08:07:36.834Z,1.63
2019-02-18T08:08:36.946Z,1.65
2019-02-18T08:09:36.801Z,1.75
2019-02-18T08:10:36.850Z,1.83
2019-02-18T08:11:36.810Z,1.82
2019-02-18T08:12:36.870Z,2.00
2019-02-18T08:13:36.772Z,2.05
2019-02-18T08:14:36.771Z,2.04
2019-02-18T08:15:36.739Z,2.08
2019-02-18T08:16:36.825Z,2.26
2019-02-18T08:17:36.737Z,2.32
2019-02-18T08:18:36.814Z,2.44
2019-02-18T08:19:36.703Z,2.41
2019-02-18T08:20:36.713Z,2.59
2019-02-18T08:21:36.712Z,2.59
2019-02-18T08:22:36.760Z,2.77
2019-02-18T08:23:36.665Z,2.98
2019-02-18T08:24:36.744Z,3.15
2019-02-18T08:25:36.634Z,3.30
2019-02-18T08:26:36.695Z,3.52
2019-02-18T08:27:36.603Z,3.64
2019-02-18T08:28:36.669Z,3.86
2019-02-18T08:29:36.584Z,3.93
2019-02-18T08:30:36.680Z,4.13
2019-02-18T08:31:36.584Z,4.10
2019-02-18T08:32:36.627Z,4.28
2019-02-18T08:33:36.541Z,4.31
2019-02-18T08:34:36.605Z,4.28
2019-02-18T08:35:36.519Z,4.43
2019-02-18T08:36:36.618Z,4.51
2019-02-18T08:37:36.526Z,4.53
2019-02-18T08:38:36.529Z,4.56
2019-02-18T08:39:36.478Z,4.75
2019-02-18T08:40:36.544Z,4.88
2019-02-18T08:41:36.481Z,5.04
2019-02-18T08:42:36.595Z,5.17
2019-02-18T08:43:36.429Z,5.37
2019-02-18T08:44:36.470Z,5.55
2019-02-18T08:45:36.424Z,5.63
2019-02-18T08:46:36.484Z,5.75
2019-02-18T08:47:36.429Z,5.98
2019-02-18T08:48:36.499Z,6.10
2019-02-18T08:49:36.368Z,6.17
2019-02-18T08:50:36.404Z,6.33
2019-02-18T08:51:36.347Z,6.57
2019-02-18T08:52:36.458Z,6.60
2019-02-18T08:53:36.356Z,6.81
2019-02-18T08:54:36.436Z,6.96
2019-02-18T08:55:36.315Z,7.05
2019-02-18T08:56:36.345Z,7.07
2019-02-18T08:57:36.292Z,7.16
2019-02-18T08:58:36.424Z,7.24
2019-02-18T08:59:36.275Z,7.30
2019-02-18T09:00:36.379Z,7.41
2019-02-18T09:01:36.248Z,7.37
2019-02-18T09:02:36.286Z,7.48
2019-02-18T09:03:36.240Z,7.71
2019-02-18T09:04:36.302Z,7.71
2019-02-18T09:05:36.193Z,7.92
2019-02-18T09:06:36.197Z,7.91
2019-02-18T09:07:36.171Z,8.13
2019-02-18T09:08:36.195Z,8.21
2019-02-18T09:09:36.152Z,8.27
2019-02-18T09:10:36.166Z,8.36
2019-02-18T09:11:36.163Z,8.40
2019-02-18T09:12:36.148Z,8.55
2019-02-18T09:13:36.129Z,8.67
2019-02-18T09:14:36.161Z,8.65
2019-02-18T09:15:36.100Z,8.78
2019-02-18T09:16:36.178Z,8.83
2019-02-18T09:17:36.068Z,8.94
2019-02-18T09:18:36.123Z,8.97
2019-02-18T09:19:36.043Z,8.94
2019-02-18T09:20:36.102Z,9.06
2019-02-18T09:21:36.023Z,9.16
2019-02-18T09:22:36.117Z,9.20
2019-02-18T09:23:36.033Z,9.17
2019-02-18T09:24:36.065Z,9.17
2019-02-18T09:25:36.009Z,9.30
2019-02-18T09:26:36.044Z,9.42
2019-02-18T09:27:35.949Z,9.45
2019-02-18T09:28:36.092Z,9.52
2019-02-18T09:29:35.960Z,9.55
2019-02-18T09:30:36.000Z,9.65
2019-02-18T09:31:35.912Z,9.62
2019-02-18T09:32:35.994Z,9.81
2019-02-18T09:33:35.933Z,9.88
2019-02-18T09:34:35.999Z,9.92
2019-02-18T09:35:35.881Z,9.95
2019-02-18T09:36:35.909Z,10.10
2019-02-18T09:37:35.867Z,10.06
2019-02-18T09:38:35.928Z,10.16
2019-02-18T09:39:35.853Z,10.18
2019-02-18T09:40:44.358Z,10.28
2019-02-18T09:41:36.800Z,10.43
2019-02-18T09:42:35.844Z,10.47
2019-02-18T09:43:35.810Z,10.52
2019-02-18T09:44:35.886Z,10.66
2019-02-18T09:45:35.756Z,10.70
2019-02-18T09:46:35.773Z,10.73
2019-02-18T09:47:35.737Z,10.87
2019-02-18T09:48:35.784Z,10.95
2019-02-18T09:49:35.743Z,11.06
2019-02-18T09:50:35.797Z,11.01
2019-02-18T09:51:35.692Z,11.16
2019-02-18T09:52:35.713Z,11.11
2019-02-18T09:53:35.677Z,11.06
2019-02-18T09:54:35.753Z,11.20
2019-02-18T09:55:35.646Z,11.28
2019-02-18T09:56:36.995Z,11.26
2019-02-18T09:57:35.631Z,11.36
2019-02-18T09:58:35.653Z,11.35
2019-02-18T09:59:35.628Z,11.31
2019-02-18T10:00:35.696Z,11.46
2019-02-18T10:01:35.584Z,11.46
2019-02-18T10:02:35.680Z,11.53
2019-02-18T10:03:35.566Z,11.67
2019-02-18T10:04:35.622Z,11.75
2019-02-18T10:05:35.566Z,11.78
2019-02-18T10:06:35.623Z,11.74
2019-02-18T10:07:35.520Z,11.79
2019-02-18T10:08:35.620Z,11.87
2019-02-18T10:09:35.533Z,11.81
2019-02-18T10:10:35.585Z,11.90
2019-02-18T10:11:35.479Z,11.98
2019-02-18T10:12:35.541Z,11.98
2019-02-18T10:13:35.454Z,11.98
2019-02-18T10:14:35.582Z,12.04
2019-02-18T10:15:35.456Z,12.07
2019-02-18T10:16:35.469Z,12.05
2019-02-18T10:17:35.409Z,12.08
2019-02-18T10:18:35.488Z,12.19
2019-02-18T10:19:35.386Z,12.23
2019-02-18T10:20:35.524Z,12.25
2019-02-18T10:21:35.364Z,12.25
2019-02-18T10:22:35.417Z,12.33
2019-02-18T10:23:35.342Z,12.40
2019-02-18T10:24:35.420Z,12.44
2019-02-18T10:25:35.320Z,12.51
2019-02-18T10:26:36.390Z,12.46
2019-02-18T10:27:35.298Z,12.46
2019-02-18T10:28:35.351Z,12.56
2019-02-18T10:29:35.277Z,12.61
2019-02-18T10:30:35.364Z,12.58
2019-02-18T10:31:35.291Z,12.62
2019-02-18T10:32:35.274Z,12.63
2019-02-18T10:33:35.249Z,12.70
2019-02-18T10:34:35.284Z,12.80
2019-02-18T10:35:35.213Z,12.80
2019-02-18T10:36:35.338Z,12.77
2019-02-18T10:37:35.215Z,12.88
2019-02-18T10:38:35.211Z,12.94
2019-02-18T10:39:35.164Z,12.92
2019-02-18T10:40:35.227Z,13.04
2019-02-18T10:41:35.143Z,13.01
2019-02-18T10:42:35.270Z,13.09
2019-02-18T10:43:35.160Z,13.07
2019-02-18T10:44:35.207Z,13.14
2019-02-18T10:45:35.111Z,13.27
2019-02-18T10:46:35.172Z,13.28
2019-02-18T10:47:35.110Z,13.27
2019-02-18T10:48:35.212Z,13.31
2019-02-18T10:49:35.072Z,13.47
2019-02-18T10:50:35.099Z,13.48
2019-02-18T10:51:35.039Z,13.51
2019-02-18T10:52:35.139Z,13.51
2019-02-18T10:53:35.017Z,13.57
2019-02-18T10:54:35.124Z,13.69
2019-02-18T10:55:34.995Z,13.75
2019-02-18T10:56:35.049Z,13.80
2019-02-18T10:57:35.005Z,13.69
2019-02-18T10:58:35.049Z,13.81
2019-02-18T10:59:34.948Z,13.87
2019-02-18T11:00:35.060Z,13.91
2019-02-18T11:01:34.980Z,13.87
2019-02-18T11:02:35.001Z,14.04
2019-02-18T11:03:34.906Z,14.01
2019-02-18T11:04:34.980Z,14.09
2019-02-18T11:05:34.882Z,14.16
2019-02-18T11:06:34.998Z,14.20
2019-02-18T11:07:34.865Z,14.29
2019-02-18T11:08:34.944Z,14.39
2019-02-18T11:09:34.846Z,14.39
2019-02-18T11:10:34.935Z,14.44
2019-02-18T11:11:34.820Z,14.36
2019-02-18T11:12:34.836Z,14.49
2019-02-18T11:13:34.820Z,14.61
2019-02-18T11:14:34.865Z,14.60
2019-02-18T11:15:34.774Z,14.63
2019-02-18T11:16:34.866Z,14.60
2019-02-18T11:17:38.838Z,14.60
2019-02-18T11:18:34.820Z,14.61
2019-02-18T11:19:34.730Z,14.64
2019-02-18T11:20:34.792Z,14.71
2019-02-18T11:21:34.727Z,14.67
2019-02-18T11:22:34.801Z,14.67
2019-02-18T11:23:34.717Z,14.61
2019-02-18T11:24:34.717Z,14.78
2019-02-18T11:25:34.739Z,14.82
2019-02-18T11:26:34.725Z,14.90
2019-02-18T11:27:34.644Z,14.90
2019-02-18T11:28:34.781Z,15.03
2019-02-18T11:29:34.629Z,15.01
2019-02-18T11:30:34.652Z,15.11
2019-02-18T11:31:34.602Z,15.22
2019-02-18T11:32:34.674Z,15.25
2019-02-18T11:33:34.636Z,15.22
2019-02-18T11:34:35.632Z,15.31
2019-02-18T11:35:34.576Z,15.27
2019-02-18T11:36:34.592Z,15.31
2019-02-18T11:37:34.532Z,15.27
2019-02-18T11:38:35.663Z,15.28
2019-02-18T11:39:34.568Z,15.22
2019-02-18T11:40:34.665Z,15.15
2019-02-18T11:41:34.491Z,15.20
2019-02-18T11:42:34.535Z,15.34
2019-02-18T11:43:34.523Z,15.34
2019-02-18T11:44:34.550Z,15.40
2019-02-18T11:45:34.972Z,15.52
2019-02-18T11:46:34.562Z,15.55
2019-02-18T11:47:34.427Z,15.62
2019-02-18T11:48:34.473Z,15.68
2019-02-18T11:49:34.429Z,15.71
2019-02-18T11:50:34.483Z,15.80
2019-02-18T11:51:34.392Z,15.85
2019-02-18T11:52:34.399Z,15.93
2019-02-18T11:53:34.361Z,15.93
2019-02-18T11:54:34.440Z,16.03
2019-02-18T11:55:34.337Z,16.03
2019-02-18T11:56:34.423Z,16.01
2019-02-18T11:57:34.324Z,16.03
2019-02-18T11:58:34.334Z,16.04
2019-02-18T11:59:34.321Z,16.07
2019-02-18T12:00:34.352Z,16.17
2019-02-18T12:01:34.273Z,16.29
2019-02-18T12:02:34.367Z,16.34
2019-02-18T12:03:34.249Z,16.36
2019-02-18T12:04:34.301Z,16.34
2019-02-18T12:05:34.228Z,16.33
2019-02-18T12:06:34.313Z,16.42
2019-02-18T12:07:34.206Z,16.45
2019-02-18T12:08:34.302Z,16.54
2019-02-18T12:09:34.210Z,16.54
2019-02-18T12:10:34.245Z,16.55
2019-02-18T12:11:37.863Z,16.55
2019-02-18T12:12:34.231Z,16.60
2019-02-18T12:13:34.145Z,16.65
2019-02-18T12:14:34.271Z,16.77
2019-02-18T12:15:34.120Z,16.63
2019-02-18T12:16:34.157Z,16.57
2019-02-18T12:17:34.094Z,16.67
2019-02-18T12:19:35.257Z,16.75
2019-02-18T12:20:34.182Z,16.81
2019-02-18T12:21:34.063Z,16.84
2019-02-18T12:22:34.096Z,16.85
2019-02-18T12:23:34.031Z,16.99
2019-02-18T12:24:34.107Z,17.02
2019-02-18T12:25:34.038Z,16.96
2019-02-18T12:26:34.126Z,16.95
2019-02-18T12:27:33.990Z,16.98
2019-02-18T12:28:34.079Z,17.12
2019-02-18T12:29:33.966Z,17.02
2019-02-18T12:30:34.081Z,17.06
2019-02-18T12:31:33.949Z,17.06
2019-02-18T12:32:33.958Z,17.05
2019-02-18T12:33:33.927Z,17.10
2019-02-18T12:34:33.974Z,17.07
2019-02-18T12:35:34.191Z,17.12
2019-02-18T12:36:33.985Z,17.12
2019-02-18T12:37:33.877Z,17.18
2019-02-18T12:38:33.903Z,17.22
2019-02-18T12:39:33.866Z,17.21
2019-02-18T12:40:34.044Z,17.22
2019-02-18T12:41:33.832Z,17.28
2019-02-18T12:42:33.924Z,17.27
2019-02-18T12:43:33.812Z,17.25
2019-02-18T12:44:33.838Z,17.42
2019-02-18T12:45:33.822Z,17.45
2019-02-18T12:46:33.854Z,17.36
2019-02-18T12:47:33.772Z,17.49
2019-02-18T12:48:35.340Z,17.42
2019-02-18T12:49:33.744Z,17.47
2019-02-18T12:50:33.930Z,17.47
2019-02-18T12:51:33.772Z,17.42
2019-02-18T12:52:33.797Z,17.38
2019-02-18T12:53:33.707Z,17.54
2019-02-18T12:54:33.807Z,17.55
2019-02-18T12:55:33.964Z,17.39
2019-02-18T12:56:33.714Z,17.40
2019-02-18T12:57:33.698Z,17.40
2019-02-18T12:58:33.729Z,17.40
2019-02-18T12:59:33.711Z,17.57
2019-02-18T13:00:33.744Z,17.60
2019-02-18T13:01:33.646Z,17.49
2019-02-18T13:02:43.389Z,17.54
2019-02-18T13:03:34.595Z,17.49
2019-02-18T13:05:34.698Z,17.43
2019-02-18T13:06:33.712Z,17.46
2019-02-18T13:07:33.575Z,17.55
2019-02-18T13:08:33.552Z,17.58
2019-02-18T13:09:33.529Z,17.60
2019-02-18T13:10:34.789Z,17.66
2019-02-18T13:11:33.511Z,17.76
2019-02-18T13:12:33.649Z,17.79
2019-02-18T13:13:33.486Z,17.73
2019-02-18T13:14:33.546Z,17.91
2019-02-18T13:15:33.468Z,17.91
2019-02-18T13:17:34.624Z,17.92
2019-02-18T13:18:33.466Z,17.94
2019-02-18T13:19:33.422Z,17.91
2019-02-18T13:20:33.475Z,18.02
2019-02-18T13:21:33.398Z,18.04
2019-02-18T13:22:33.489Z,17.91
2019-02-18T13:23:33.402Z,17.87
2019-02-18T13:24:33.394Z,17.94
2019-02-18T13:25:33.363Z,17.94
2019-02-18T13:26:33.415Z,17.98
2019-02-18T13:27:33.336Z,17.96
2019-02-18T13:28:33.969Z,17.86
2019-02-18T13:29:33.317Z,17.76
2019-02-18T13:30:33.337Z,17.76
2019-02-18T13:31:33.296Z,17.87
2019-02-18T13:32:34.407Z,17.94
2019-02-18T13:33:33.324Z,17.95
2019-02-18T13:34:33.474Z,17.94
2019-02-18T13:35:33.282Z,17.92
2019-02-18T13:36:33.594Z,17.87
2019-02-18T13:37:33.231Z,17.84
2019-02-18T13:38:33.634Z,17.91
2019-02-18T13:39:33.213Z,17.91
2019-02-18T13:40:33.718Z,18.05
2019-02-18T13:41:33.205Z,18.14
2019-02-18T13:42:33.841Z,18.07